Time;durP1;ratioP1;P1;durP2;ratioP2;P2;SDS_P1;SDS_P2;PMS_P1;PMS_P2;Temp;Humidity;BMP_temperature;BMP_pressure;BME280_temperature;BME280_humidity;BME280_pressure;Samples;Min_cycle;Max_cycle;Signal;HPM_P1;HPM_P2
2023/02/14 00:00:38;;;;;;;;;;;;;;;20.35;32.51;102376.36;106289;1282;61353;-84
2023/02/14 00:03:04;;;;;;;;;;;;;;;20.35;32.46;102364.40;106172;1282;61592;-83
2023/02/14 00:05:29;;;;;;;;;;;;;;;20.35;32.58;102363.46;106239;1285;61353;-83
2023/02/14 00:07:55;;;;;;;;;;;;;;;20.35;32.43;102358.64;106281;1282;61388;-83
2023/02/14 00:10:20;;;;;;;;;;;;;;;20.36;32.48;102354.15;106229;1282;61445;-84
2023/02/14 00:12:46;;;;;;;;;;;;;;;20.36;32.57;102346.48;106235;1283;61262;-83
2023/02/14 00:15:24;;;;;;;;;;;;;;;20.36;32.62;102341.64;106322;1282;61776;-84
2023/02/14 00:17:50;;;;;;;;;;;;;;;20.35;32.55;102340.21;106277;1282;71498;-83
2023/02/14 00:20:15;;;;;;;;;;;;;;;20.36;32.38;102343.42;106300;1283;61253;-83
2023/02/14 00:22:41;;;;;;;;;;;;;;;20.35;32.48;102344.51;106235;1287;61276;-83
2023/02/14 00:25:06;;;;;;;;;;;;;;;20.36;32.54;102341.27;106355;1282;61442;-83
2023/02/14 00:27:32;;;;;;;;;;;;;;;20.36;32.67;102338.25;106311;1283;61251;-82
2023/02/14 00:30:01;;;;;;;;;;;;;;;20.36;32.53;102336.81;106326;1282;61260;-82
2023/02/14 00:32:27;;;;;;;;;;;;;;;20.36;32.61;102323.21;106176;1287;74466;-82
2023/02/14 00:34:53;;;;;;;;;;;;;;;20.36;32.56;102319.27;106425;1283;61310;-82
2023/02/14 00:37:19;;;;;;;;;;;;;;;20.35;32.49;102314.83;106185;1283;61199;-83
2023/02/14 00:39:46;;;;;;;;;;;;;;;20.36;32.55;102308.55;106192;1282;61263;-82
2023/02/14 00:42:13;;;;;;;;;;;;;;;20.36;32.60;102298.90;106165;1287;62067;-83
2023/02/14 00:44:39;;;;;;;;;;;;;;;20.36;32.45;102293.20;106198;1282;61224;-83
2023/02/14 00:47:04;;;;;;;;;;;;;;;20.35;32.56;102292.83;106203;1283;61370;-83
2023/02/14 00:49:30;;;;;;;;;;;;;;;20.35;32.69;102293.55;106281;1282;61794;-83
2023/02/14 00:51:55;;;;;;;;;;;;;;;20.35;32.58;102289.08;106397;1282;61422;-83
2023/02/14 00:54:21;;;;;;;;;;;;;;;20.35;32.57;102285.86;106217;1283;61240;-83
2023/02/14 00:56:46;;;;;;;;;;;;;;;20.36;32.60;102282.45;106218;1283;62015;-83
2023/02/14 00:59:12;;;;;;;;;;;;;;;20.35;32.49;102274.07;106402;1283;61699;-83
2023/02/14 01:01:38;;;;;;;;;;;;;;;20.36;32.59;102269.58;106154;1283;61287;-83
2023/02/14 01:04:03;;;;;;;;;;;;;;;20.36;32.51;102267.98;106185;1282;61258;-82
2023/02/14 01:06:30;;;;;;;;;;;;;;;20.35;32.66;102266.90;106331;1283;61282;-83
2023/02/14 01:08:55;;;;;;;;;;;;;;;20.35;32.68;102268.52;106293;1282;61308;-83
2023/02/14 01:11:24;;;;;;;;;;;;;;;20.35;32.57;102273.17;106280;1283;61371;-82
2023/02/14 01:13:50;;;;;;;;;;;;;;;20.35;32.63;102268.52;106252;1282;72495;-83
2023/02/14 01:16:17;;;;;;;;;;;;;;;20.36;32.59;102272.09;106288;1282;61381;-83
2023/02/14 01:18:42;;;;;;;;;;;;;;;20.36;32.50;102274.05;106171;1283;61348;-83
2023/02/14 01:21:13;;;;;;;;;;;;;;;20.36;32.56;102264.39;106164;1282;61247;-83
2023/02/14 01:23:40;;;;;;;;;;;;;;;20.35;32.60;102260.84;106277;1283;73530;-83
2023/02/14 01:26:06;;;;;;;;;;;;;;;20.36;32.60;102254.55;106172;1287;74328;-83
2023/02/14 01:28:31;;;;;;;;;;;;;;;20.36;32.57;102253.66;106209;1283;61342;-82
2023/02/14 01:30:57;;;;;;;;;;;;;;;20.36;32.66;102245.59;106177;1282;61269;-82
2023/02/14 01:33:22;;;;;;;;;;;;;;;20.36;32.56;102235.95;106173;1283;61263;-82
2023/02/14 01:35:47;;;;;;;;;;;;;;;20.36;32.55;102225.94;106212;1282;61281;-82
2023/02/14 01:38:13;;;;;;;;;;;;;;;20.36;32.72;102220.77;106259;1283;74532;-82
2023/02/14 01:40:42;;;;;;;;;;;;;;;20.36;32.65;102223.27;106286;1285;61355;-82
2023/02/14 01:43:12;;;;;;;;;;;;;;;20.36;32.62;102221.82;106181;1283;61319;-82
2023/02/14 01:45:37;;;;;;;;;;;;;;;20.36;32.61;102223.62;106261;1288;73498;-82
2023/02/14 01:48:03;;;;;;;;;;;;;;;20.37;32.58;102227.70;106188;1283;61364;-82
2023/02/14 01:50:31;;;;;;;;;;;;;;;20.36;32.64;102227.90;106192;1283;61307;-82
2023/02/14 01:52:59;;;;;;;;;;;;;;;20.36;32.61;102229.50;106186;1282;61163;-82
2023/02/14 01:55:26;;;;;;;;;;;;;;;20.37;32.61;102224.66;106225;1282;73476;-82
2023/02/14 01:57:57;;;;;;;;;;;;;;;20.36;32.53;102215.37;106267;1283;77246;-82
2023/02/14 02:03:07;;;;;;;;;;;;;;;20.37;32.60;102197.12;106289;1282;61276;-82
2023/02/14 02:05:35;;;;;;;;;;;;;;;20.37;32.49;102189.97;106266;1288;61321;-82
2023/02/14 02:08:00;;;;;;;;;;;;;;;20.36;32.61;102170.86;106209;1282;75052;-82
2023/02/14 02:10:27;;;;;;;;;;;;;;;20.37;32.47;102160.45;106168;1282;61254;-82
2023/02/14 02:12:52;;;;;;;;;;;;;;;20.37;32.50;102154.40;106312;1283;61365;-82
2023/02/14 02:15:20;;;;;;;;;;;;;;;20.36;32.47;102149.05;106142;1283;61233;-82
2023/02/14 02:17:52;;;;;;;;;;;;;;;20.36;32.51;102148.15;106059;1283;61320;-82
2023/02/14 02:20:36;;;;;;;;;;;;;;;20.37;32.53;102159.04;106194;1288;61717;-82
2023/02/14 02:23:08;;;;;;;;;;;;;;;20.36;32.55;102156.73;106287;1282;61223;-82
2023/02/14 02:25:36;;;;;;;;;;;;;;;20.36;32.56;102149.79;106283;1282;72590;-82
2023/02/14 02:28:02;;;;;;;;;;;;;;;20.36;32.50;102153.52;106175;1288;74498;-82
2023/02/14 02:30:53;;;;;;;;;;;;;;;20.36;32.61;102156.73;106288;1283;61393;-82
2023/02/14 02:33:39;;;;;;;;;;;;;;;20.36;32.52;102155.64;106230;1282;61227;-82
2023/02/14 02:36:05;;;;;;;;;;;;;;;20.35;32.54;102151.94;106125;1282;72621;-82
2023/02/14 02:38:33;;;;;;;;;;;;;;;20.36;32.61;102149.94;106288;1284;61266;-82
2023/02/14 02:41:04;;;;;;;;;;;;;;;20.36;32.59;102153.35;106323;1282;61190;-82
2023/02/14 02:43:48;;;;;;;;;;;;;;;20.36;32.75;102152.98;106037;1284;61278;-83
2023/02/14 02:49:04;;;;;;;;;;;;;;;20.36;32.51;102153.17;106310;1283;74417;-82
2023/02/14 02:54:25;;;;;;;;;;;;;;;20.36;32.72;102156.73;106298;1284;61026;-83
2023/02/14 02:56:54;;;;;;;;;;;;;;;20.37;32.50;102156.89;106184;1283;72340;-82
2023/02/14 02:59:34;;;;;;;;;;;;;;;20.37;32.47;102158.48;106209;1283;74524;-82
2023/02/14 03:02:05;;;;;;;;;;;;;;;20.37;32.51;102154.89;106186;1283;61066;-82
2023/02/14 03:04:53;;;;;;;;;;;;;;;20.37;32.45;102156.16;106208;1282;61419;-82
2023/02/14 03:07:33;;;;;;;;;;;;;;;20.38;32.64;102161.50;106301;1282;73270;-82
2023/02/14 03:10:00;;;;;;;;;;;;;;;20.37;32.38;102158.10;106140;1282;75760;-82
2023/02/14 03:12:28;;;;;;;;;;;;;;;20.37;32.53;102155.42;106286;1285;61115;-82
2023/02/14 03:15:06;;;;;;;;;;;;;;;20.37;32.40;102148.10;106267;1282;61279;-82
2023/02/14 03:17:35;;;;;;;;;;;;;;;20.37;32.64;102148.27;106186;1283;73571;-82
2023/02/14 03:20:27;;;;;;;;;;;;;;;20.37;32.61;102148.30;106158;1281;74458;-82
2023/02/14 03:23:12;;;;;;;;;;;;;;;20.37;32.50;102148.63;106233;1282;61119;-82
2023/02/14 03:25:40;;;;;;;;;;;;;;;20.37;32.48;102137.93;106274;1283;61118;-82
2023/02/14 03:28:19;;;;;;;;;;;;;;;20.37;32.52;102132.73;106261;1283;73121;-82
2023/02/14 03:30:53;;;;;;;;;;;;;;;20.37;32.45;102127.55;106250;1285;75925;-82
2023/02/14 03:33:20;;;;;;;;;;;;;;;20.36;32.53;102125.42;106273;1285;61337;-82
2023/02/14 03:35:52;;;;;;;;;;;;;;;20.37;32.51;102121.66;106204;1287;61720;-83
2023/02/14 03:38:21;;;;;;;;;;;;;;;20.36;32.59;102120.09;106177;1283;72704;-83
2023/02/14 03:40:56;;;;;;;;;;;;;;;20.36;32.54;102124.20;106246;1283;75249;-83
2023/02/14 03:43:27;;;;;;;;;;;;;;;20.36;32.53;102125.80;106280;1283;61122;-82
2023/02/14 03:46:13;;;;;;;;;;;;;;;20.36;32.62;102132.43;106287;1283;61174;-82
2023/02/14 03:48:38;;;;;;;;;;;;;;;20.36;32.53;102136.00;106147;1281;72425;-82
2023/02/14 03:51:05;;;;;;;;;;;;;;;20.37;32.57;102134.16;106186;1288;61260;-82
2023/02/14 03:53:32;;;;;;;;;;;;;;;20.37;32.54;102129.33;106269;1283;61343;-82
2023/02/14 03:56:02;;;;;;;;;;;;;;;20.36;32.51;102117.75;106188;1287;59986;-82
2023/02/14 03:58:29;;;;;;;;;;;;;;;20.37;32.45;102110.95;106159;1287;72431;-83
2023/02/14 04:00:56;;;;;;;;;;;;;;;20.37;32.66;102103.08;106253;1287;73505;-82
2023/02/14 04:03:22;;;;;;;;;;;;;;;20.36;32.58;102099.88;106158;1282;61272;-82
2023/02/14 04:05:51;;;;;;;;;;;;;;;20.36;32.56;102106.66;106178;1283;61758;-82
2023/02/14 04:08:24;;;;;;;;;;;;;;;20.36;32.59;102115.08;106165;1283;73506;-82
2023/02/14 04:10:49;;;;;;;;;;;;;;;20.36;32.51;102117.41;106186;1283;76505;-82
2023/02/14 04:13:15;;;;;;;;;;;;;;;20.36;32.52;102120.24;106189;1283;61289;-82
2023/02/14 04:15:40;;;;;;;;;;;;;;;20.36;32.59;102115.96;106190;1288;61401;-82
2023/02/14 04:20:52;;;;;;;;;;;;;;;20.36;32.53;102119.54;106159;1286;75465;-82
2023/02/14 04:23:18;;;;;;;;;;;;;;;20.36;32.52;102122.58;106165;1287;61342;-82
2023/02/14 04:25:44;;;;;;;;;;;;;;;20.36;32.45;102123.11;106302;1283;61356;-82
2023/02/14 04:28:10;;;;;;;;;;;;;;;20.36;32.47;102106.13;106190;1282;60098;-82
2023/02/14 04:30:36;;;;;;;;;;;;;;;20.36;32.46;102093.08;106183;1282;61272;-83
2023/02/14 04:33:02;;;;;;;;;;;;;;;20.36;32.44;102093.44;106188;1288;61400;-82
2023/02/14 04:35:27;;;;;;;;;;;;;;;20.36;32.44;102095.41;106308;1282;61300;-82
2023/02/14 04:37:53;;;;;;;;;;;;;;;20.36;32.47;102103.81;106231;1282;61256;-82
2023/02/14 04:40:18;;;;;;;;;;;;;;;20.36;32.41;102109.71;106297;1283;73748;-82
2023/02/14 04:42:45;;;;;;;;;;;;;;;20.35;32.59;102113.51;106190;1283;61226;-82
2023/02/14 04:45:10;;;;;;;;;;;;;;;20.36;32.49;102120.80;106154;1284;61380;-82
2023/02/14 04:47:36;;;;;;;;;;;;;;;20.36;32.39;102120.09;106271;1282;61253;-82
2023/02/14 04:50:02;;;;;;;;;;;;;;;20.36;32.46;102119.91;106239;1286;61236;-82
2023/02/14 04:52:27;;;;;;;;;;;;;;;20.36;32.41;102109.36;106184;1283;61283;-82
2023/02/14 04:54:53;;;;;;;;;;;;;;;20.36;32.43;102117.93;106218;1283;59278;-82
2023/02/14 04:57:19;;;;;;;;;;;;;;;20.36;32.38;102117.06;106213;1283;61076;-82
2023/02/14 04:59:45;;;;;;;;;;;;;;;20.35;32.42;102115.50;106185;1282;61270;-82
2023/02/14 05:02:11;;;;;;;;;;;;;;;20.33;32.13;102122.73;106166;1283;61270;-82
2023/02/14 05:04:37;;;;;;;;;;;;;;;20.31;32.03;102124.45;106157;1283;61309;-82
2023/02/14 05:07:05;;;;;;;;;;;;;;;20.27;31.86;102120.49;106198;1282;61330;-82
2023/02/14 05:09:31;;;;;;;;;;;;;;;20.24;31.89;102121.52;106171;1283;61332;-83
2023/02/14 05:11:56;;;;;;;;;;;;;;;20.21;31.92;102119.38;106193;1283;61263;-82
2023/02/14 05:14:24;;;;;;;;;;;;;;;20.19;31.78;102124.46;106218;1283;61375;-82
2023/02/14 05:16:49;;;;;;;;;;;;;;;20.18;31.62;102125.75;106225;1283;61316;-83
2023/02/14 05:19:15;;;;;;;;;;;;;;;20.17;31.47;102128.83;106307;1283;61841;-84
2023/02/14 05:21:42;;;;;;;;;;;;;;;20.14;31.57;102124.15;106226;1283;61253;-83
2023/02/14 05:24:08;;;;;;;;;;;;;;;20.09;31.46;102128.14;106238;1285;61225;-83
2023/02/14 05:26:34;;;;;;;;;;;;;;;20.03;31.43;102139.14;106130;1282;61288;-83
2023/02/14 05:29:00;;;;;;;;;;;;;;;19.97;31.34;102139.94;106193;1282;60085;-83
2023/02/14 05:31:25;;;;;;;;;;;;;;;19.89;31.23;102135.64;106021;1288;59579;-83
2023/02/14 05:33:51;;;;;;;;;;;;;;;19.83;31.21;102137.71;106416;1283;61162;-83
2023/02/14 05:36:17;;;;;;;;;;;;;;;19.77;31.18;102134.19;106321;1282;61120;-83
2023/02/14 05:38:43;;;;;;;;;;;;;;;19.71;31.07;102142.13;106356;1284;59266;-83
2023/02/14 05:41:09;;;;;;;;;;;;;;;19.66;30.97;102143.98;106176;1282;62240;-83
2023/02/14 05:43:34;;;;;;;;;;;;;;;19.61;30.86;102142.05;106243;1283;61298;-83
2023/02/14 05:46:02;;;;;;;;;;;;;;;19.54;30.91;102148.94;106290;1283;60178;-83
2023/02/14 05:48:29;;;;;;;;;;;;;;;19.48;30.74;102154.38;106353;1283;61340;-84
2023/02/14 05:50:54;;;;;;;;;;;;;;;19.43;30.67;102149.58;106378;1283;60165;-83
2023/02/14 05:53:24;;;;;;;;;;;;;;;19.40;30.77;102144.75;106436;1282;61281;-83
2023/02/14 05:55:50;;;;;;;;;;;;;;;19.37;30.73;102144.14;106367;1282;73241;-83
2023/02/14 05:58:16;;;;;;;;;;;;;;;19.34;30.75;102154.64;106309;1288;61275;-83
2023/02/14 06:00:41;;;;;;;;;;;;;;;19.30;30.70;102153.73;106309;1282;59956;-83
2023/02/14 06:03:07;;;;;;;;;;;;;;;19.28;30.77;102152.23;106384;1282;60040;-83
2023/02/14 06:05:32;;;;;;;;;;;;;;;19.24;30.75;102151.48;106465;1282;61368;-83
2023/02/14 06:07:59;;;;;;;;;;;;;;;19.23;30.59;102151.17;106291;1283;73420;-83
2023/02/14 06:10:25;;;;;;;;;;;;;;;19.24;30.47;102153.42;106411;1282;75515;-83
2023/02/14 06:12:51;;;;;;;;;;;;;;;19.26;30.52;102154.58;106428;1282;59275;-83
2023/02/14 06:15:17;;;;;;;;;;;;;;;19.29;30.55;102154.86;106176;1282;59736;-83
2023/02/14 06:17:44;;;;;;;;;;;;;;;19.32;30.52;102156.35;105973;1286;59260;-83
2023/02/14 06:20:10;;;;;;;;;;;;;;;19.35;30.52;102158.50;105595;1292;61242;-84
2023/02/14 06:22:36;;;;;;;;;;;;;;;19.38;30.45;102162.47;105531;1289;61238;-83
2023/02/14 06:25:04;;;;;;;;;;;;;;;19.41;30.38;102165.02;105687;1289;60286;-83
2023/02/14 06:27:30;;;;;;;;;;;;;;;19.45;30.33;102166.31;105515;1289;59392;-83
2023/02/14 06:29:55;;;;;;;;;;;;;;;19.48;30.34;102166.34;105542;1289;61144;-83
2023/02/14 06:32:21;;;;;;;;;;;;;;;19.51;30.41;102164.25;105549;1290;60007;-83
2023/02/14 06:34:47;;;;;;;;;;;;;;;19.54;30.25;102172.16;105572;1292;60334;-84
2023/02/14 06:37:12;;;;;;;;;;;;;;;19.57;30.23;102168.81;105674;1291;60077;-84
2023/02/14 06:39:38;;;;;;;;;;;;;;;19.60;30.23;102168.86;105524;1289;72620;-84
2023/02/14 06:42:05;;;;;;;;;;;;;;;19.63;30.12;102170.35;105594;1290;62596;-84
2023/02/14 06:44:31;;;;;;;;;;;;;;;19.66;30.07;102172.20;105630;1290;62144;-84
2023/02/14 06:46:56;;;;;;;;;;;;;;;19.68;30.19;102171.03;105538;1293;61705;-84
2023/02/14 06:49:25;;;;;;;;;;;;;;;19.70;30.06;102173.44;105712;1291;59489;-84
2023/02/14 06:51:50;;;;;;;;;;;;;;;19.72;30.01;102171.02;105999;1286;61248;-84
2023/02/14 06:54:15;;;;;;;;;;;;;;;19.74;29.92;102168.08;105958;1286;61539;-84
2023/02/14 06:56:41;;;;;;;;;;;;;;;19.75;30.13;102161.59;105992;1285;59581;-84
2023/02/14 06:59:07;;;;;;;;;;;;;;;19.76;30.07;102155.83;105983;1285;61450;-84
2023/02/14 07:01:32;;;;;;;;;;;;;;;19.77;30.27;102152.92;104514;1286;1850817;-84
2023/02/14 07:03:57;;;;;;;;;;;;;;;19.79;30.39;102147.68;106060;1283;61372;-84
2023/02/14 07:06:23;;;;;;;;;;;;;;;19.81;30.52;102145.14;106500;1282;59833;-84
2023/02/14 07:08:49;;;;;;;;;;;;;;;19.82;30.73;102148.67;106445;1282;60119;-84
2023/02/14 07:11:15;;;;;;;;;;;;;;;19.84;30.72;102143.20;106481;1282;59976;-84
2023/02/14 07:13:42;;;;;;;;;;;;;;;19.85;30.91;102139.77;106350;1283;61423;-84
2023/02/14 07:16:08;;;;;;;;;;;;;;;19.86;30.77;102137.02;106350;1282;74657;-84
2023/02/14 07:18:34;;;;;;;;;;;;;;;19.88;30.99;102134.29;106368;1282;59468;-83
2023/02/14 07:21:00;;;;;;;;;;;;;;;19.90;30.95;102136.70;106371;1283;59974;-84
2023/02/14 07:23:25;;;;;;;;;;;;;;;19.90;30.99;102137.91;106339;1283;59343;-84
2023/02/14 07:25:51;;;;;;;;;;;;;;;19.91;31.04;102134.12;106344;1282;61728;-83
2023/02/14 07:28:16;;;;;;;;;;;;;;;19.93;31.07;102135.66;106482;1283;61180;-84
2023/02/14 07:30:42;;;;;;;;;;;;;;;19.93;31.02;102137.42;106465;1282;61019;-84
2023/02/14 07:33:07;;;;;;;;;;;;;;;19.93;31.21;102139.78;106596;1282;59398;-85
2023/02/14 07:35:34;;;;;;;;;;;;;;;19.89;31.22;102136.56;106593;1283;61285;-84
2023/02/14 07:38:02;;;;;;;;;;;;;;;19.83;31.25;102134.84;106484;1288;59241;-83
2023/02/14 07:40:28;;;;;;;;;;;;;;;19.77;31.32;102131.85;106610;1282;59641;-84
2023/02/14 07:42:55;;;;;;;;;;;;;;;19.72;31.32;102134.58;106591;1282;60888;-84
2023/02/14 07:45:20;;;;;;;;;;;;;;;19.67;31.32;102132.14;106748;1282;60340;-84
2023/02/14 07:47:50;;;;;;;;;;;;;;;19.62;31.21;102129.13;106386;1282;59916;-84
2023/02/14 07:50:15;;;;;;;;;;;;;;;19.58;31.33;102130.19;106333;1282;60939;-84
2023/02/14 07:52:41;;;;;;;;;;;;;;;19.54;31.38;102128.41;106344;1282;60665;-84
2023/02/14 07:55:06;;;;;;;;;;;;;;;19.51;31.17;102123.91;106374;1283;59731;-83
2023/02/14 07:57:32;;;;;;;;;;;;;;;19.47;31.24;102122.30;106332;1283;61394;-84
2023/02/14 07:59:57;;;;;;;;;;;;;;;19.45;31.40;102121.68;106289;1282;62176;-83
2023/02/14 08:02:23;;;;;;;;;;;;;;;19.42;31.47;102121.63;106137;1285;61093;-84
2023/02/14 08:04:48;;;;;;;;;;;;;;;19.39;31.41;102120.66;106207;1282;59555;-83
2023/02/14 08:07:15;;;;;;;;;;;;;;;19.36;31.20;102124.38;106284;1282;59778;-84
2023/02/14 08:09:40;;;;;;;;;;;;;;;19.28;31.19;102121.70;106484;1282;59484;-83
2023/02/14 08:14:52;;;;;;;;;;;;;;;19.16;31.41;102108.42;106535;1282;61148;-82
2023/02/14 08:17:19;;;;;;;;;;;;;;;19.15;31.41;102107.95;106443;1283;61315;-81
2023/02/14 08:19:44;;;;;;;;;;;;;;;19.18;31.32;102110.34;106402;1282;60987;-82
2023/02/14 08:22:10;;;;;;;;;;;;;;;19.22;31.31;102111.18;106337;1282;60585;-83
2023/02/14 08:24:38;;;;;;;;;;;;;;;19.27;31.17;102115.48;106368;1283;61357;-84
2023/02/14 08:27:03;;;;;;;;;;;;;;;19.33;31.06;102120.77;106362;1282;61233;-83
2023/02/14 08:29:29;;;;;;;;;;;;;;;19.38;31.13;102120.70;106391;1282;59442;-83
2023/02/14 08:31:54;;;;;;;;;;;;;;;19.45;31.15;102121.67;106500;1282;59687;-84
2023/02/14 08:34:20;;;;;;;;;;;;;;;19.50;31.21;102119.10;106522;1282;61147;-83
2023/02/14 08:36:46;;;;;;;;;;;;;;;19.57;31.26;102120.77;106338;1281;61058;-83
2023/02/14 08:39:12;;;;;;;;;;;;;;;19.64;31.42;102122.82;106469;1282;61214;-83
2023/02/14 08:41:37;;;;;;;;;;;;;;;19.69;31.48;102122.40;106475;1282;60078;-84
2023/02/14 08:44:04;;;;;;;;;;;;;;;19.73;31.61;102118.80;106397;1282;62372;-84
2023/02/14 08:46:32;;;;;;;;;;;;;;;19.78;31.54;102124.69;106292;1282;61090;-84
2023/02/14 08:48:57;;;;;;;;;;;;;;;19.82;31.74;102125.41;106317;1282;61236;-84
2023/02/14 08:51:24;;;;;;;;;;;;;;;19.85;31.80;102125.48;106402;1282;61262;-85
2023/02/14 08:53:50;;;;;;;;;;;;;;;19.88;31.86;102125.18;106189;1283;61152;-84
2023/02/14 08:56:16;;;;;;;;;;;;;;;19.91;31.89;102126.95;106294;1283;59834;-84
2023/02/14 08:58:42;;;;;;;;;;;;;;;19.94;32.09;102120.95;106304;1282;61231;-84
2023/02/14 09:01:12;;;;;;;;;;;;;;;19.97;31.96;102120.30;106289;1282;59538;-84
2023/02/14 09:03:37;;;;;;;;;;;;;;;19.99;32.08;102120.92;106291;1282;61032;-84
2023/02/14 09:06:04;;;;;;;;;;;;;;;19.99;32.04;102118.94;106323;1281;59347;-85
2023/02/14 09:08:30;;;;;;;;;;;;;;;19.95;31.97;102119.67;106799;1282;59799;-84
2023/02/14 09:10:56;;;;;;;;;;;;;;;19.88;31.87;102121.21;106692;1282;59987;-83
2023/02/14 09:13:22;;;;;;;;;;;;;;;19.84;31.97;102127.10;106869;1282;59507;-83
2023/02/14 09:15:47;;;;;;;;;;;;;;;19.82;31.96;102126.88;106714;1282;59807;-83
2023/02/14 09:18:13;;;;;;;;;;;;;;;19.81;32.00;102125.65;106836;1282;59601;-83
2023/02/14 09:20:39;;;;;;;;;;;;;;;19.82;31.91;102125.23;106890;1282;59773;-83
2023/02/14 09:23:04;;;;;;;;;;;;;;;19.84;31.99;102129.45;106790;1282;74501;-83
2023/02/14 09:25:30;;;;;;;;;;;;;;;19.85;32.11;102128.12;106786;1282;59174;-83
2023/02/14 09:27:56;;;;;;;;;;;;;;;19.88;32.13;102130.34;106470;1282;60385;-84
2023/02/14 09:30:21;;;;;;;;;;;;;;;19.92;32.09;102133.90;106361;1282;60081;-83
2023/02/14 09:32:47;;;;;;;;;;;;;;;19.95;32.32;102131.63;106596;1282;62333;-83
2023/02/14 09:35:12;;;;;;;;;;;;;;;19.98;32.09;102133.64;106417;1282;75518;-83
2023/02/14 09:40:22;;;;;;;;;;;;;;;20.03;32.08;102127.73;106383;1282;59925;-83
2023/02/14 09:42:48;;;;;;;;;;;;;;;20.03;32.19;102123.20;106189;1283;59774;-83
2023/02/14 09:45:15;;;;;;;;;;;;;;;20.04;32.16;102117.80;106405;1282;59103;-84
2023/02/14 09:47:40;;;;;;;;;;;;;;;20.06;32.16;102121.14;106388;1282;59330;-84
2023/02/14 09:50:11;;;;;;;;;;;;;;;20.06;32.02;102118.45;106470;1282;61263;-83
2023/02/14 09:52:36;;;;;;;;;;;;;;;20.06;32.16;102116.33;106392;1282;72391;-83
2023/02/14 09:55:02;;;;;;;;;;;;;;;20.06;32.15;102118.23;106443;1282;60145;-83
2023/02/14 09:57:44;;;;;;;;;;;;;;;20.06;32.02;102117.88;106407;1282;59728;-83
2023/02/14 10:00:16;;;;;;;;;;;;;;;20.08;32.00;102113.37;106461;1282;61311;-85
2023/02/14 10:02:48;;;;;;;;;;;;;;;20.05;32.03;102110.46;106331;1281;73432;-82
2023/02/14 10:05:19;;;;;;;;;;;;;;;19.96;31.89;102110.84;106378;1281;74628;-85
2023/02/14 10:07:54;;;;;;;;;;;;;;;19.82;31.68;102115.75;106406;1282;61119;-83
2023/02/14 10:10:38;;;;;;;;;;;;;;;19.70;31.78;102110.91;106510;1282;60526;-83
2023/02/14 10:13:15;;;;;;;;;;;;;;;19.66;31.77;102108.25;106399;1282;73298;-83
2023/02/14 10:15:44;;;;;;;;;;;;;;;19.63;31.76;102103.20;106568;1282;75418;-83
2023/02/14 10:18:14;;;;;;;;;;;;;;;19.63;31.52;102094.85;106538;1282;60961;-83
2023/02/14 10:20:44;;;;;;;;;;;;;;;19.63;31.66;102096.59;106417;1282;61248;-84
2023/02/14 10:23:21;;;;;;;;;;;;;;;19.64;31.50;102094.77;106406;1282;73473;-84
2023/02/14 10:25:48;;;;;;;;;;;;;;;19.63;31.47;102087.48;106320;1282;75802;-83
2023/02/14 10:28:13;;;;;;;;;;;;;;;19.66;31.39;102080.39;106331;1282;60009;-82
2023/02/14 10:30:39;;;;;;;;;;;;;;;19.69;31.39;102078.09;106355;1281;61191;-84
2023/02/14 10:33:10;;;;;;;;;;;;;;;19.71;31.29;102070.14;106490;1282;60921;-84
2023/02/14 10:35:36;;;;;;;;;;;;;;;19.73;31.25;102067.73;106387;1282;75386;-83
2023/02/14 10:38:04;;;;;;;;;;;;;;;19.75;31.17;102067.48;106386;1283;59776;-84
2023/02/14 10:40:30;;;;;;;;;;;;;;;19.79;31.31;102064.63;106411;1281;61222;-83
2023/02/14 10:42:58;;;;;;;;;;;;;;;19.82;31.22;102060.60;106439;1282;61173;-83
2023/02/14 10:45:28;;;;;;;;;;;;;;;19.83;31.40;102063.58;106527;1282;75310;-83
2023/02/14 10:48:00;;;;;;;;;;;;;;;19.84;31.31;102058.52;106552;1281;61253;-83
2023/02/14 10:50:42;;;;;;;;;;;;;;;19.84;31.25;102049.60;106501;1281;61142;-83
2023/02/14 10:53:17;;;;;;;;;;;;;;;19.83;31.11;102054.30;106346;1282;73622;-83
2023/02/14 10:55:46;;;;;;;;;;;;;;;19.82;31.06;102045.75;106782;1282;75346;-83
2023/02/14 10:58:13;;;;;;;;;;;;;;;19.84;30.97;102044.42;107025;1282;60988;-83
2023/02/14 11:00:40;;;;;;;;;;;;;;;19.85;31.01;102042.41;106361;1283;62320;-84
2023/02/14 11:03:07;;;;;;;;;;;;;;;19.81;30.94;102034.88;106369;1282;72480;-82
2023/02/14 11:05:37;;;;;;;;;;;;;;;19.74;30.68;102036.83;106286;1283;75507;-84
2023/02/14 11:08:13;;;;;;;;;;;;;;;19.65;30.88;102032.75;106332;1282;60576;-83
2023/02/14 11:10:39;;;;;;;;;;;;;;;19.60;30.95;102031.89;106481;1282;60242;-83
2023/02/14 11:13:24;;;;;;;;;;;;;;;19.54;30.96;102029.11;106344;1281;60166;-82
2023/02/14 11:15:53;;;;;;;;;;;;;;;19.51;30.77;102024.98;106446;1281;74486;-83
2023/02/14 11:18:23;;;;;;;;;;;;;;;19.48;30.77;102025.99;106383;1282;61180;-83
2023/02/14 11:21:08;;;;;;;;;;;;;;;19.46;30.84;102028.97;106980;1282;59333;-82
2023/02/14 11:23:34;;;;;;;;;;;;;;;19.40;30.81;102025.68;106940;1282;73433;-83
2023/02/14 11:26:23;;;;;;;;;;;;;;;19.35;30.75;102017.83;106360;1282;74386;-83
2023/02/14 11:28:51;;;;;;;;;;;;;;;19.34;30.60;102023.23;105780;1288;60120;-83
2023/02/14 11:31:32;;;;;;;;;;;;;;;19.35;30.54;102021.95;105733;1288;61128;-83
2023/02/14 11:33:58;;;;;;;;;;;;;;;19.35;30.59;102017.47;105651;1288;72407;-83
2023/02/14 11:36:23;;;;;;;;;;;;;;;19.37;30.58;102013.13;105615;1288;60046;-83
2023/02/14 11:39:07;;;;;;;;;;;;;;;19.36;30.45;102003.50;105617;1288;61321;-82
2023/02/14 11:41:48;;;;;;;;;;;;;;;19.35;30.23;102006.06;105649;1289;60202;-83
2023/02/14 11:44:21;;;;;;;;;;;;;;;19.35;30.30;102007.14;105793;1288;73375;-82
2023/02/14 11:46:46;;;;;;;;;;;;;;;19.35;30.17;102004.62;105740;1288;74716;-82
2023/02/14 11:49:34;;;;;;;;;;;;;;;19.35;30.21;101998.20;105731;1288;61249;-82
2023/02/14 11:52:07;;;;;;;;;;;;;;;19.34;30.25;101994.85;105753;1288;59926;-82
2023/02/14 11:54:33;;;;;;;;;;;;;;;19.32;29.92;101990.33;105710;1288;72601;-83
2023/02/14 11:57:01;;;;;;;;;;;;;;;19.30;30.18;101983.27;105760;1288;59415;-83
2023/02/14 11:59:29;;;;;;;;;;;;;;;19.29;30.14;101983.66;105751;1288;61251;-83
2023/02/14 12:01:56;;;;;;;;;;;;;;;19.30;30.09;101982.55;105725;1288;61345;-83
2023/02/14 12:04:24;;;;;;;;;;;;;;;19.29;30.04;101976.35;105644;1288;72366;-82
2023/02/14 12:06:50;;;;;;;;;;;;;;;19.27;30.00;101970.20;106072;1283;74365;-84
2023/02/14 12:09:23;;;;;;;;;;;;;;;19.22;29.89;101969.88;106319;1283;59609;-82
2023/02/14 12:11:58;;;;;;;;;;;;;;;19.15;29.92;101964.65;106416;1281;61004;-83
2023/02/14 12:14:25;;;;;;;;;;;;;;;19.15;29.86;101961.27;106280;1287;72571;-83
2023/02/14 12:17:20;;;;;;;;;;;;;;;19.17;29.82;101956.19;106307;1281;74588;-84
2023/02/14 12:19:47;;;;;;;;;;;;;;;19.18;29.65;101953.44;105576;1291;61298;-85
2023/02/14 12:22:14;;;;;;;;;;;;;;;19.20;29.68;101947.67;105481;1291;62650;-84
2023/02/14 12:25:00;;;;;;;;;;;;;;;19.21;29.72;101937.58;105521;1290;72418;-83
2023/02/14 12:27:27;;;;;;;;;;;;;;;19.25;29.64;101938.30;105478;1290;74324;-83
2023/02/14 12:29:52;;;;;;;;;;;;;;;19.27;29.65;101937.88;105500;1290;59963;-83
2023/02/14 12:32:24;;;;;;;;;;;;;;;19.29;29.56;101934.77;105571;1289;61402;-83
2023/02/14 12:34:50;;;;;;;;;;;;;;;19.30;29.66;101929.36;105572;1289;73490;-83
2023/02/14 12:37:15;;;;;;;;;;;;;;;19.30;29.58;101920.62;106025;1289;61213;-83
2023/02/14 12:40:01;;;;;;;;;;;;;;;19.32;29.52;101926.79;105510;1288;61196;-83
2023/02/14 12:42:33;;;;;;;;;;;;;;;19.33;29.46;101917.80;105409;1290;61449;-84
2023/02/14 12:45:05;;;;;;;;;;;;;;;19.34;29.55;101916.87;105894;1290;71545;-84
2023/02/14 12:47:38;;;;;;;;;;;;;;;19.36;29.45;101917.13;105509;1290;73263;-83